Time;durP1;ratioP1;P1;durP2;ratioP2;P2;SDS_P1;SDS_P2;PMS_P1;PMS_P2;Temp;Humidity;BMP_temperature;BMP_pressure;BME280_temperature;BME280_humidity;BME280_pressure;Samples;Min_cycle;Max_cycle;Signal;HPM_P1;HPM_P2
2021/04/18 00:01:32;;;;;;;12.15;7.53;;;8.80;99.90;;;;;;5096773;28;20039;-43
2021/04/18 00:03:58;;;;;;;12.35;8.05;;;8.80;99.90;;;;;;5096770;28;20118;-44
2021/04/18 00:06:25;;;;;;;10.70;7.45;;;8.80;99.90;;;;;;5094049;28;20052;-43
2021/04/18 00:08:51;;;;;;;11.45;7.03;;;8.70;99.90;;;;;;5097094;28;20024;-46
2021/04/18 00:11:18;;;;;;;13.32;8.93;;;8.80;99.90;;;;;;5096711;28;20493;-46
2021/04/18 00:13:44;;;;;;;10.43;7.68;;;8.90;99.90;;;;;;5077407;28;20119;-46
2021/04/18 00:16:10;;;;;;;8.63;6.63;;;9.00;99.90;;;;;;5077629;28;20036;-45
2021/04/18 00:18:36;;;;;;;10.80;7.72;;;8.90;99.90;;;;;;5077772;28;20075;-46
2021/04/18 00:21:02;;;;;;;7.88;6.13;;;9.00;99.90;;;;;;5096255;28;20070;-46
2021/04/18 00:23:28;;;;;;;8.93;6.07;;;8.90;99.90;;;;;;5096346;28;20058;-43
2021/04/18 00:25:54;;;;;;;10.48;6.70;;;8.80;99.90;;;;;;5096134;28;20035;-45
2021/04/18 00:28:19;;;;;;;10.13;6.00;;;8.90;99.90;;;;;;5096481;28;20024;-45
2021/04/18 00:30:45;;;;;;;10.80;7.28;;;9.00;99.90;;;;;;5077334;28;20487;-46
2021/04/18 00:33:11;;;;;;;8.02;5.78;;;9.00;99.90;;;;;;5077178;28;20499;-43
2021/04/18 00:35:37;;;;;;;9.98;6.65;;;8.90;99.90;;;;;;5095911;28;20023;-44
2021/04/18 00:38:02;;;;;;;10.65;6.80;;;9.00;99.90;;;;;;5096004;28;20032;-46
2021/04/18 00:40:29;;;;;;;9.63;6.50;;;9.00;99.90;;;;;;5096126;28;20036;-45
2021/04/18 00:42:55;;;;;;;8.32;5.18;;;8.50;99.90;;;;;;5095891;28;20365;-44
2021/04/18 00:45:22;;;;;;;6.32;4.90;;;8.30;99.90;;;;;;5095843;28;20093;-42
2021/04/18 00:47:52;;;;;;;6.40;4.30;;;8.10;99.90;;;;;;5095732;28;20054;-45
2021/04/18 00:50:30;;;;;;;5.30;4.13;;;8.20;99.90;;;;;;5093666;28;20032;-45
2021/04/18 00:52:57;;;;;;;5.00;4.00;;;8.40;99.90;;;;;;5095689;28;20028;-44
2021/04/18 00:55:27;;;;;;;5.68;4.35;;;8.30;99.90;;;;;;5076720;28;20063;-42
2021/04/18 00:57:54;;;;;;;6.68;4.65;;;8.20;99.90;;;;;;5095447;28;20036;-43
2021/04/18 01:00:21;;;;;;;4.80;4.00;;;8.30;99.90;;;;;;5095759;28;20557;-44
2021/04/18 01:02:47;;;;;;;5.75;3.83;;;8.40;99.90;;;;;;5095577;28;20044;-45
2021/04/18 01:05:13;;;;;;;5.50;4.30;;;8.60;99.90;;;;;;5095303;28;20385;-44
2021/04/18 01:07:39;;;;;;;8.23;4.53;;;8.70;99.90;;;;;;5095296;28;20534;-44
2021/04/18 01:10:09;;;;;;;6.45;4.10;;;8.80;99.90;;;;;;5059596;28;20164;-46
2021/04/18 01:12:34;;;;;;;7.00;5.53;;;8.60;99.90;;;;;;5009869;28;20075;-45
2021/04/18 01:15:01;;;;;;;5.65;4.05;;;8.50;99.90;;;;;;5095340;28;20067;-45
2021/04/18 01:17:27;;;;;;;7.32;5.43;;;8.20;99.90;;;;;;5093241;28;20111;-43
2021/04/18 01:19:53;;;;;;;7.07;5.05;;;8.20;99.90;;;;;;5059289;28;20032;-45
2021/04/18 01:22:19;;;;;;;10.63;6.30;;;8.00;99.90;;;;;;5095770;28;20032;-44
2021/04/18 01:24:45;;;;;;;6.72;4.85;;;7.80;99.90;;;;;;5076248;28;20127;-45
2021/04/18 01:27:11;;;;;;;7.53;4.07;;;7.80;99.90;;;;;;5094824;28;20051;-45
2021/04/18 01:29:38;;;;;;;10.05;5.68;;;8.20;99.90;;;;;;5095190;28;20038;-44
2021/04/18 01:32:04;;;;;;;5.78;4.20;;;8.40;99.90;;;;;;5095053;28;20036;-43
2021/04/18 01:34:30;;;;;;;5.63;4.53;;;8.60;99.90;;;;;;5092526;28;20043;-44
2021/04/18 01:36:56;;;;;;;12.27;6.15;;;8.80;99.90;;;;;;5094809;28;20414;-46
2021/04/18 01:39:23;;;;;;;7.22;5.38;;;8.90;99.90;;;;;;5109921;28;20052;-43
2021/04/18 01:41:49;;;;;;;6.13;4.55;;;9.00;99.90;;;;;;5095370;28;20039;-45
2021/04/18 01:44:15;;;;;;;6.85;5.00;;;9.10;99.90;;;;;;5095084;28;20056;-44
2021/04/18 01:46:46;;;;;;;4.70;2.90;;;8.50;99.90;;;;;;5092680;28;20540;-45
2021/04/18 01:49:12;;;;;;;4.95;3.17;;;8.30;99.90;;;;;;5094648;28;20043;-46
2021/04/18 01:51:39;;;;;;;2.95;2.35;;;8.20;99.90;;;;;;5094775;28;20053;-46
2021/04/18 01:54:05;;;;;;;4.68;3.25;;;8.30;99.90;;;;;;5094550;28;20386;-44
2021/04/18 01:56:32;;;;;;;4.32;2.58;;;8.20;99.90;;;;;;5094596;28;20114;-44
2021/04/18 01:58:58;;;;;;;5.07;3.35;;;8.30;99.90;;;;;;5094473;28;20032;-43
2021/04/18 02:01:24;;;;;;;5.03;3.42;;;8.40;99.90;;;;;;5094593;28;20043;-46
2021/04/18 02:03:50;;;;;;;4.88;3.28;;;8.50;99.90;;;;;;5075616;28;20428;-45
2021/04/18 02:06:16;;;;;;;3.85;3.03;;;8.30;99.90;;;;;;5094160;28;20056;-43
2021/04/18 02:08:42;;;;;;;5.88;3.85;;;8.00;99.90;;;;;;5094494;28;20028;-44
2021/04/18 02:11:07;;;;;;;4.40;3.47;;;7.70;99.90;;;;;;5094390;28;20451;-45
2021/04/18 02:13:33;;;;;;;7.00;3.47;;;7.50;99.90;;;;;;5094479;28;20028;-48
2021/04/18 02:15:59;;;;;;;5.40;2.97;;;7.80;99.90;;;;;;5093747;28;20020;-44
2021/04/18 02:18:25;;;;;;;3.33;2.80;;;8.10;99.90;;;;;;5058603;28;20520;-45
2021/04/18 02:20:51;;;;;;;3.88;2.97;;;8.40;99.90;;;;;;5094070;28;20062;-43
2021/04/18 02:23:17;;;;;;;4.32;3.08;;;8.60;99.90;;;;;;5075078;28;20036;-45
2021/04/18 02:25:43;;;;;;;4.07;3.00;;;8.70;99.90;;;;;;5092093;28;20123;-46
2021/04/18 02:28:08;;;;;;;4.13;2.85;;;8.80;99.90;;;;;;5093984;28;20032;-47
2021/04/18 02:30:34;;;;;;;3.78;2.85;;;8.90;99.90;;;;;;5093961;28;20058;-47
2021/04/18 02:33:00;;;;;;;3.70;2.85;;;9.00;99.90;;;;;;5093561;28;20028;-43
2021/04/18 02:35:27;;;;;;;3.38;2.58;;;9.00;99.90;;;;;;5093940;28;20031;-45
2021/04/18 02:37:53;;;;;;;3.50;2.83;;;9.00;99.90;;;;;;5094195;28;20049;-42
2021/04/18 02:40:19;;;;;;;4.40;2.92;;;9.00;99.90;;;;;;5091925;28;20067;-43
2021/04/18 02:42:45;;;;;;;3.25;2.20;;;8.90;99.90;;;;;;5094084;28;20106;-44
2021/04/18 02:45:11;;;;;;;3.22;2.67;;;8.90;99.90;;;;;;5074611;28;20036;-43
2021/04/18 02:47:37;;;;;;;3.10;2.40;;;8.90;99.90;;;;;;5093734;28;20089;-46
2021/04/18 02:50:04;;;;;;;3.47;2.33;;;8.90;99.90;;;;;;5091640;28;20040;-46
2021/04/18 02:52:30;;;;;;;3.40;2.42;;;8.80;99.90;;;;;;5091871;28;20063;-47
2021/04/18 02:54:56;;;;;;;3.55;2.50;;;8.80;99.90;;;;;;5091684;28;20085;-45
2021/04/18 02:57:22;;;;;;;3.60;2.28;;;8.90;99.90;;;;;;5093375;28;20028;-43
2021/04/18 02:59:48;;;;;;;3.83;2.63;;;8.80;99.90;;;;;;5074877;28;20032;-45
2021/04/18 03:02:13;;;;;;;3.28;2.35;;;8.80;99.90;;;;;;5093635;28;20027;-44
2021/04/18 03:04:39;;;;;;;4.18;2.55;;;8.80;99.90;;;;;;5093520;28;20024;-43
2021/04/18 03:07:05;;;;;;;3.15;2.55;;;8.80;99.90;;;;;;5008032;28;20074;-46
2021/04/18 03:09:31;;;;;;;3.58;2.33;;;8.80;99.90;;;;;;5093899;28;20443;-43
2021/04/18 03:11:56;;;;;;;3.70;2.35;;;8.80;99.90;;;;;;5093426;28;20024;-42
2021/04/18 03:14:22;;;;;;;3.47;2.50;;;8.70;99.90;;;;;;5093874;28;20039;-45
2021/04/18 03:16:48;;;;;;;3.38;2.50;;;8.80;99.90;;;;;;5094057;28;20020;-43
2021/04/18 03:19:14;;;;;;;4.10;2.55;;;8.70;99.90;;;;;;5093393;28;20510;-45
2021/04/18 03:21:39;;;;;;;3.83;2.75;;;8.80;99.90;;;;;;5074844;28;20391;-43
2021/04/18 03:24:06;;;;;;;3.35;2.65;;;8.80;99.90;;;;;;5093632;28;20456;-46
2021/04/18 03:26:32;;;;;;;4.45;2.22;;;8.90;99.90;;;;;;5093309;28;20039;-44
2021/04/18 03:28:58;;;;;;;3.70;2.47;;;8.90;99.90;;;;;;5096117;28;20375;-43
2021/04/18 03:31:24;;;;;;;3.80;2.33;;;8.90;99.90;;;;;;5097428;28;20032;-46
2021/04/18 03:33:49;;;;;;;2.63;1.98;;;8.90;99.90;;;;;;5095211;28;20036;-43
2021/04/18 03:36:15;;;;;;;3.00;2.67;;;8.80;99.90;;;;;;5097332;28;20430;-45
2021/04/18 03:38:41;;;;;;;2.70;2.03;;;8.70;99.90;;;;;;5097505;28;20031;-44
2021/04/18 03:41:07;;;;;;;3.50;2.53;;;8.80;99.90;;;;;;5097388;28;20020;-45
2021/04/18 03:43:33;;;;;;;3.63;2.53;;;8.80;99.90;;;;;;5097933;28;20445;-45
2021/04/18 03:45:59;;;;;;;2.60;2.20;;;8.80;99.90;;;;;;5011644;28;20454;-43
2021/04/18 03:48:25;;;;;;;3.35;2.28;;;8.80;99.90;;;;;;5096976;28;20352;-44
2021/04/18 03:50:51;;;;;;;3.15;2.40;;;8.80;99.90;;;;;;5095625;28;20023;-43
2021/04/18 03:53:17;;;;;;;3.17;2.28;;;8.70;99.90;;;;;;5097087;28;20028;-45
2021/04/18 03:55:43;;;;;;;2.58;2.05;;;8.80;99.90;;;;;;5097108;28;20032;-46
2021/04/18 03:58:09;;;;;;;3.95;2.70;;;8.80;99.90;;;;;;5097139;28;20030;-42
2021/04/18 04:00:34;;;;;;;3.00;2.35;;;8.80;99.90;;;;;;5097044;28;20028;-44
2021/04/18 04:03:00;;;;;;;3.58;2.45;;;8.80;99.90;;;;;;5061147;28;20132;-43
2021/04/18 04:05:26;;;;;;;3.70;2.60;;;8.80;99.90;;;;;;5094765;28;20032;-44
2021/04/18 04:07:52;;;;;;;3.38;2.42;;;8.80;99.90;;;;;;5096519;28;20406;-45
2021/04/18 04:10:18;;;;;;;3.58;2.50;;;8.80;99.90;;;;;;5096765;28;20359;-44
2021/04/18 04:12:43;;;;;;;2.80;2.10;;;8.80;99.90;;;;;;5094804;28;20158;-44
2021/04/18 04:15:09;;;;;;;3.58;2.60;;;8.80;99.90;;;;;;5011348;28;20451;-44
2021/04/18 04:17:35;;;;;;;3.25;2.10;;;8.80;99.90;;;;;;5060605;28;20114;-42
2021/04/18 04:20:01;;;;;;;3.20;2.40;;;8.90;99.90;;;;;;5096680;28;20051;-45
2021/04/18 04:22:27;;;;;;;3.28;2.00;;;8.80;99.90;;;;;;5096489;28;20027;-41
2021/04/18 04:24:53;;;;;;;3.00;2.33;;;8.80;99.90;;;;;;5094183;28;20497;-45
2021/04/18 04:27:20;;;;;;;2.88;2.13;;;8.80;99.90;;;;;;5096324;28;20455;-41
2021/04/18 04:29:49;;;;;;;5.43;3.58;;;8.70;99.90;;;;;;5096710;28;20024;-45
2021/04/18 04:32:16;;;;;;;3.25;2.50;;;8.80;99.90;;;;;;5096049;28;20494;-46
2021/04/18 04:34:42;;;;;;;2.72;2.17;;;8.80;99.90;;;;;;5096431;28;20028;-44
2021/04/18 04:37:07;;;;;;;2.75;2.20;;;8.70;99.90;;;;;;5096107;28;20421;-43
2021/04/18 04:39:33;;;;;;;2.85;2.15;;;8.70;99.90;;;;;;5076519;28;20032;-45
2021/04/18 04:42:00;;;;;;;2.08;1.88;;;8.60;99.90;;;;;;5096077;28;20028;-44
2021/04/18 04:44:28;;;;;;;2.35;1.75;;;8.60;99.90;;;;;;5096080;28;20073;-44
2021/04/18 04:46:54;;;;;;;2.67;2.10;;;8.60;99.90;;;;;;5096039;28;20040;-43
2021/04/18 04:49:19;;;;;;;3.55;2.35;;;8.70;99.90;;;;;;5096077;28;20081;-45
2021/04/18 04:51:45;;;;;;;4.93;3.00;;;8.70;99.90;;;;;;5060224;28;20070;-46
2021/04/18 04:54:11;;;;;;;4.40;2.90;;;8.60;99.90;;;;;;5093701;28;20356;-46
2021/04/18 04:56:36;;;;;;;4.28;3.00;;;8.60;99.90;;;;;;5095733;28;20024;-44
2021/04/18 04:59:02;;;;;;;3.85;3.00;;;8.50;99.90;;;;;;5095754;28;20047;-44
2021/04/18 05:01:28;;;;;;;3.70;3.10;;;8.40;99.90;;;;;;5059746;28;20075;-45
2021/04/18 05:03:54;;;;;;;3.15;2.50;;;8.50;99.90;;;;;;5095714;28;20089;-45
2021/04/18 05:06:19;;;;;;;3.85;2.50;;;8.50;99.90;;;;;;5093149;28;20040;-42
2021/04/18 05:08:45;;;;;;;4.22;2.95;;;8.50;99.90;;;;;;5095548;28;20436;-43
2021/04/18 05:11:11;;;;;;;6.38;5.50;;;8.40;99.90;;;;;;5076627;28;20036;-42
2021/04/18 05:13:37;;;;;;;4.22;3.13;;;8.50;99.90;;;;;;5095681;28;20471;-45
2021/04/18 05:16:03;;;;;;;7.20;6.50;;;8.50;99.90;;;;;;5095333;28;20028;-44
2021/04/18 05:18:28;;;;;;;3.45;2.60;;;8.40;99.90;;;;;;5059397;28;20471;-42
2021/04/18 05:20:54;;;;;;;2.65;2.03;;;8.40;99.90;;;;;;5059708;28;20032;-43
2021/04/18 05:23:20;;;;;;;2.70;2.38;;;8.50;99.90;;;;;;5093124;28;20536;-45
2021/04/18 05:25:46;;;;;;;3.05;2.30;;;8.30;99.90;;;;;;5094995;28;20055;-44
2021/04/18 05:28:11;;;;;;;2.83;2.00;;;8.20;99.90;;;;;;5095458;28;20124;-45
2021/04/18 05:30:37;;;;;;;2.22;1.83;;;8.10;99.90;;;;;;5095605;28;20454;-44
2021/04/18 05:33:03;;;;;;;2.95;2.00;;;8.00;99.90;;;;;;5092987;28;20032;-43
2021/04/18 05:35:29;;;;;;;3.13;2.03;;;8.10;99.90;;;;;;5093308;28;20027;-43
2021/04/18 05:37:55;;;;;;;2.92;2.00;;;8.00;99.90;;;;;;5054173;28;20105;-45
2021/04/18 05:40:21;;;;;;;2.72;2.10;;;8.10;99.90;;;;;;5071233;28;20074;-45
2021/04/18 05:42:47;;;;;;;3.10;2.00;;;8.20;99.90;;;;;;5054373;28;20029;-43
2021/04/18 05:45:12;;;;;;;2.72;2.15;;;8.30;99.90;;;;;;5070908;28;20045;-45
2021/04/18 05:47:38;;;;;;;3.50;2.25;;;8.30;99.90;;;;;;5036927;28;20043;-44
2021/04/18 05:50:04;;;;;;;2.40;1.80;;;8.40;99.90;;;;;;5070708;28;20915;-44
2021/04/18 05:52:30;;;;;;;2.75;1.98;;;8.30;99.90;;;;;;5070238;28;20045;-43
2021/04/18 05:54:56;;;;;;;3.15;2.03;;;8.10;99.90;;;;;;5037242;28;20108;-43
2021/04/18 05:57:22;;;;;;;2.53;1.98;;;8.20;99.90;;;;;;5070709;28;20518;-44
2021/04/18 05:59:48;;;;;;;3.10;2.03;;;8.20;99.90;;;;;;5070839;28;20025;-44
2021/04/18 06:02:13;;;;;;;2.72;2.00;;;8.10;99.90;;;;;;5037182;28;20076;-45
2021/04/18 06:04:39;;;;;;;2.40;1.92;;;8.10;99.90;;;;;;5053803;28;20033;-44
2021/04/18 06:07:05;;;;;;;2.92;2.05;;;8.30;99.90;;;;;;5070249;28;20087;-45
2021/04/18 06:09:31;;;;;;;2.28;1.98;;;8.30;99.90;;;;;;5035513;28;20032;-45
2021/04/18 06:11:57;;;;;;;3.10;2.42;;;8.10;99.90;;;;;;5108224;28;20058;-44
2021/04/18 06:14:23;;;;;;;4.20;3.47;;;8.10;99.90;;;;;;5093042;28;20024;-43
2021/04/18 06:16:50;;;;;;;4.25;2.78;;;8.00;99.90;;;;;;5092875;28;20028;-45
2021/04/18 06:19:17;;;;;;;3.17;2.55;;;7.80;99.90;;;;;;5092983;28;20032;-44
2021/04/18 06:21:44;;;;;;;2.75;2.15;;;7.90;99.90;;;;;;5093106;28;20094;-42
2021/04/18 06:24:10;;;;;;;2.33;2.03;;;7.90;99.90;;;;;;5093890;28;20032;-43
2021/04/18 06:26:36;;;;;;;4.65;2.75;;;7.80;99.90;;;;;;5057870;28;20094;-43
2021/04/18 06:29:01;;;;;;;3.58;2.72;;;7.90;99.90;;;;;;5075048;28;20471;-43
2021/04/18 06:31:27;;;;;;;4.82;2.60;;;7.90;99.90;;;;;;5093852;28;20026;-47
2021/04/18 06:33:53;;;;;;;4.13;2.70;;;8.00;99.90;;;;;;5094025;28;20374;-45
2021/04/18 06:36:19;;;;;;;3.10;2.42;;;7.90;99.90;;;;;;5093571;28;20108;-45
2021/04/18 06:38:45;;;;;;;3.28;2.80;;;7.90;99.90;;;;;;5093650;28;20027;-45
2021/04/18 06:41:19;;;;;;;6.15;3.67;;;8.00;99.90;;;;;;5094044;28;20024;-45
2021/04/18 06:43:46;;;;;;;4.07;2.83;;;8.00;99.90;;;;;;5093960;28;20020;-46
2021/04/18 06:46:16;;;;;;;3.72;2.35;;;7.70;99.90;;;;;;5093542;28;20036;-46
2021/04/18 06:48:44;;;;;;;4.43;3.33;;;7.70;99.90;;;;;;5093722;28;20040;-45
2021/04/18 06:51:10;;;;;;;3.97;2.90;;;7.70;99.90;;;;;;5093767;28;20107;-46
2021/04/18 06:53:36;;;;;;;3.47;2.42;;;7.80;99.90;;;;;;5091580;28;20036;-45
2021/04/18 06:56:04;;;;;;;3.83;2.50;;;7.90;99.90;;;;;;5093827;28;20086;-46
2021/04/18 06:58:30;;;;;;;2.80;1.95;;;7.80;99.90;;;;;;5041130;28;20036;-45
2021/04/18 07:00:56;;;;;;;3.60;2.33;;;7.50;99.90;;;;;;5093457;28;20032;-45
2021/04/18 07:03:22;;;;;;;3.30;2.72;;;7.50;99.90;;;;;;5074850;28;20044;-46
2021/04/18 07:05:50;;;;;;;4.85;3.17;;;7.50;99.90;;;;;;5091668;28;20040;-45
2021/04/18 07:08:19;;;;;;;3.03;2.50;;;7.70;99.90;;;;;;5073275;28;20040;-45
2021/04/18 07:10:45;;;;;;;4.80;3.25;;;7.80;99.90;;;;;;5073336;28;20040;-45
2021/04/18 07:13:13;;;;;;;5.22;2.80;;;7.70;99.90;;;;;;5038033;28;20098;-45
2021/04/18 07:15:42;;;;;;;5.30;2.65;;;7.80;99.90;;;;;;5070947;28;20044;-45
2021/04/18 07:18:09;;;;;;;3.65;2.80;;;8.00;99.90;;;;;;5071156;28;20094;-47
2021/04/18 07:20:51;;;;;;;3.97;2.83;;;7.70;99.90;;;;;;5071085;28;20040;-45
2021/04/18 07:23:28;;;;;;;;;;;7.80;99.90;;;;;;5071322;28;20029;-46
2021/04/18 07:25:59;;;;;;;4.72;3.30;;;7.50;99.90;;;;;;5071031;28;19904;-45
2021/04/18 07:28:26;;;;;;;4.63;2.72;;;7.60;99.90;;;;;;5071156;28;20522;-45
2021/04/18 07:31:02;;;;;;;4.97;3.78;;;7.80;99.90;;;;;;5070901;28;20044;-45
2021/04/18 07:33:28;;;;;;;3.60;2.50;;;7.90;99.90;;;;;;5071071;28;20035;-45
2021/04/18 07:35:54;;;;;;;3.58;2.35;;;7.70;99.90;;;;;;5037485;28;20028;-45
2021/04/18 07:38:28;;;;;;;4.10;2.45;;;7.90;99.90;;;;;;5053295;28;20041;-45
2021/04/18 07:41:14;;;;;;;4.10;3.08;;;7.90;99.90;;;;;;5070788;28;20143;-45
2021/04/18 07:43:43;;;;;;;6.30;4.10;;;7.90;99.90;;;;;;5020354;28;20399;-45
2021/04/18 07:46:09;;;;;;;4.07;3.03;;;8.10;99.90;;;;;;5071277;28;20064;-45
2021/04/18 07:48:37;;;;;;;3.60;3.15;;;8.10;99.90;;;;;;5071124;28;20455;-45
2021/04/18 07:51:03;;;;;;;4.95;3.58;;;8.00;99.90;;;;;;5073153;28;20028;-46
2021/04/18 07:53:29;;;;;;;32.33;17.13;;;8.10;99.90;;;;;;5054333;28;20036;-45
2021/04/18 07:55:55;;;;;;;5.07;3.88;;;8.10;99.90;;;;;;5073440;28;20099;-45
2021/04/18 07:58:21;;;;;;;47.08;19.58;;;8.10;99.90;;;;;;5072822;28;20340;-46
2021/04/18 08:00:46;;;;;;;7.07;5.00;;;8.10;99.90;;;;;;5070854;28;20086;-45
2021/04/18 08:03:16;;;;;;;5.07;3.85;;;8.20;99.90;;;;;;5087680;28;20037;-46
2021/04/18 08:05:44;;;;;;;4.93;3.90;;;8.30;99.90;;;;;;5073307;28;20050;-46
2021/04/18 08:08:14;;;;;;;4.97;3.60;;;8.30;99.90;;;;;;5091865;28;20074;-45
2021/04/18 08:10:45;;;;;;;4.93;4.00;;;8.50;99.90;;;;;;5108248;28;20040;-46
2021/04/18 08:13:20;;;;;;;7.32;4.60;;;8.40;99.90;;;;;;5072896;28;20548;-46
2021/04/18 08:15:55;;;;;;;4.28;3.67;;;8.40;99.90;;;;;;5096362;28;20119;-45
2021/04/18 08:18:47;;;;;;;5.85;4.32;;;8.40;99.90;;;;;;5096626;28;20069;-46
2021/04/18 08:21:33;;;;;;;9.70;4.43;;;8.40;99.90;;;;;;5095342;28;20379;-45
2021/04/18 08:24:01;;;;;;;6.20;4.82;;;8.40;99.90;;;;;;5096570;28;20097;-46
2021/04/18 08:26:32;;;;;;;6.75;4.95;;;8.40;99.90;;;;;;5096431;28;20028;-45
2021/04/18 08:28:59;;;;;;;5.85;4.50;;;8.40;99.90;;;;;;5096472;28;20111;-45
2021/04/18 08:31:30;;;;;;;12.02;7.03;;;8.20;99.90;;;;;;5096637;28;20082;-46
2021/04/18 08:33:58;;;;;;;5.47;4.10;;;8.30;99.90;;;;;;5096574;28;20073;-45
2021/04/18 08:36:25;;;;;;;6.07;4.47;;;8.40;99.90;;;;;;5096184;28;20027;-46
2021/04/18 08:39:00;;;;;;;4.93;4.07;;;8.60;99.90;;;;;;5096644;28;20024;-45
2021/04/18 08:41:47;;;;;;;6.55;4.65;;;8.50;99.90;;;;;;5096557;28;20024;-45
2021/04/18 08:44:19;;;;;;;5.22;4.18;;;8.50;99.90;;;;;;5096419;28;20058;-45
2021/04/18 08:46:46;;;;;;;6.72;4.95;;;8.70;99.90;;;;;;5096171;28;20398;-45
2021/04/18 08:49:35;;;;;;;5.47;4.35;;;8.80;99.90;;;;;;5096264;28;20111;-45
2021/04/18 08:52:08;;;;;;;6.00;4.82;;;8.90;99.90;;;;;;5096108;28;20081;-46
2021/04/18 08:54:37;;;;;;;5.70;4.40;;;8.70;99.90;;;;;;5094804;28;20344;-46
2021/04/18 08:57:06;;;;;;;7.25;5.00;;;8.90;99.90;;;;;;5093568;28;20482;-45
2021/04/18 08:59:33;;;;;;;4.90;3.83;;;8.90;99.90;;;;;;5093211;28;20502;-45
2021/04/18 09:02:02;;;;;;;6.18;4.40;;;8.90;99.90;;;;;;5093358;28;20066;-45
2021/04/18 09:04:30;;;;;;;5.63;3.95;;;9.00;99.90;;;;;;5093530;28;20036;-46
2021/04/18 09:06:56;;;;;;;4.35;3.78;;;9.00;99.90;;;;;;5093213;28;20047;-45
2021/04/18 09:09:22;;;;;;;13.93;7.68;;;8.90;99.90;;;;;;5093394;28;20044;-45
2021/04/18 09:11:48;;;;;;;7.25;5.28;;;8.90;99.90;;;;;;5093548;28;20071;-45
2021/04/18 09:14:35;;;;;;;7.75;5.38;;;8.90;99.90;;;;;;5093543;28;20028;-45
2021/04/18 09:17:16;;;;;;;5.63;4.45;;;9.00;99.90;;;;;;5093181;28;20496;-45
2021/04/18 09:19:48;;;;;;;5.53;4.35;;;9.10;99.90;;;;;;5093411;28;20371;-45
2021/04/18 09:22:15;;;;;;;;;;;9.10;99.90;;;;;;5093600;28;20040;-45
2021/04/18 09:25:09;;;;;;;4.00;3.00;;;9.10;99.90;;;;;;5093076;28;19995;-45
2021/04/18 09:27:38;;;;;;;7.85;5.10;;;9.30;99.90;;;;;;5092431;28;20075;-46
2021/04/18 09:30:14;;;;;;;31.52;18.77;;;9.50;99.90;;;;;;5095197;28;20434;-44
2021/04/18 09:32:44;;;;;;;17.83;14.38;;;9.60;99.90;;;;;;5095400;28;20042;-45
2021/04/18 09:35:11;;;;;;;3.95;3.47;;;9.70;99.90;;;;;;5095134;28;20032;-45
2021/04/18 09:37:39;;;;;;;4.05;3.60;;;9.80;99.90;;;;;;5110148;28;20032;-46
2021/04/18 09:40:15;;;;;;;3.50;3.03;;;9.80;99.90;;;;;;5095388;28;20028;-45
2021/04/18 09:42:45;;;;;;;7.13;2.83;;;9.80;99.90;;;;;;5093210;28;20071;-45
2021/04/18 09:45:14;;;;;;;3.38;2.40;;;9.80;99.90;;;;;;5094988;28;20565;-46
2021/04/18 09:47:49;;;;;;;7.60;4.20;;;9.80;99.90;;;;;;5094981;28;20043;-45
2021/04/18 09:50:34;;;;;;;10.68;5.88;;;9.60;99.90;;;;;;5095151;28;20020;-45
2021/04/18 09:53:24;;;;;;;3.90;3.50;;;9.60;99.90;;;;;;5094922;28;20030;-45
2021/04/18 09:56:03;;;;;;;13.23;6.32;;;9.80;99.90;;;;;;5093614;28;20605;-45
2021/04/18 09:58:34;;;;;;;4.18;3.25;;;9.70;99.90;;;;;;5049816;28;20035;-45
2021/04/18 10:01:01;;;;;;;3.92;2.45;;;9.80;99.90;;;;;;5052054;28;20029;-45
2021/04/18 10:03:38;;;;;;;4.65;2.72;;;9.70;99.90;;;;;;5019024;28;20057;-45
2021/04/18 10:06:04;;;;;;;3.33;3.03;;;9.70;99.90;;;;;;5051870;28;20051;-46
2021/04/18 10:08:32;;;;;;;3.42;2.70;;;9.60;99.90;;;;;;5052207;28;20499;-46
2021/04/18 10:11:17;;;;;;;3.45;2.40;;;9.60;99.90;;;;;;5052091;28;20074;-46
2021/04/18 10:13:59;;;;;;;2.75;1.83;;;9.60;99.90;;;;;;5051856;28;20041;-45
2021/04/18 10:16:31;;;;;;;;;;;9.40;99.90;;;;;;5052049;28;20029;-46
2021/04/18 10:19:07;;;;;;;3.35;2.60;;;9.70;99.90;;;;;;5051429;28;19904;-46
2021/04/18 10:21:34;;;;;;;2.67;2.40;;;9.80;99.90;;;;;;5051686;28;20028;-46
2021/04/18 10:24:00;;;;;;;3.40;2.65;;;10.10;99.90;;;;;;5051542;28;20435;-45
2021/04/18 10:26:26;;;;;;;2.97;2.67;;;10.00;99.90;;;;;;5034923;28;20055;-45
2021/04/18 10:28:54;;;;;;;3.55;2.85;;;10.20;99.90;;;;;;5057107;28;20040;-46
2021/04/18 10:31:24;;;;;;;2.58;2.13;;;10.50;99.90;;;;;;5071990;28;20064;-46
2021/04/18 10:33:50;;;;;;;3.63;3.33;;;10.70;99.90;;;;;;5073806;28;20028;-45
2021/04/18 10:36:17;;;;;;;3.67;3.15;;;;;;;;;;5097208;28;20158;-45
2021/04/18 10:38:43;;;;;;;4.95;3.80;;;11.10;99.90;;;;;;5093902;28;20028;-45
2021/04/18 10:41:09;;;;;;;6.72;4.25;;;11.20;99.90;;;;;;5092383;28;20028;-45
2021/04/18 10:43:36;;;;;;;5.70;4.50;;;11.00;99.90;;;;;;5092854;28;20027;-47
2021/04/18 10:46:03;;;;;;;3.72;2.78;;;11.10;99.90;;;;;;5092723;28;20052;-45
2021/04/18 10:48:29;;;;;;;4.72;3.95;;;11.10;99.90;;;;;;5092591;28;20043;-44
2021/04/18 10:50:54;;;;;;;3.70;3.00;;;11.10;99.90;;;;;;5092641;28;20076;-46
2021/04/18 10:53:20;;;;;;;4.20;3.63;;;11.10;99.90;;;;;;5092438;28;20034;-45
2021/04/18 10:55:47;;;;;;;6.15;4.28;;;11.10;99.90;;;;;;5073516;28;20036;-44
2021/04/18 10:58:14;;;;;;;3.50;3.13;;;11.20;99.90;;;;;;5092460;28;20059;-45
2021/04/18 11:00:41;;;;;;;14.75;7.75;;;11.00;99.90;;;;;;5092551;28;20028;-45
2021/04/18 11:03:07;;;;;;;2.97;2.67;;;11.20;99.90;;;;;;5092418;28;20024;-45
2021/04/18 11:05:33;;;;;;;5.15;4.10;;;11.00;99.90;;;;;;5092382;28;20028;-44
2021/04/18 11:07:59;;;;;;;3.85;3.38;;;11.10;99.90;;;;;;5092263;28;20071;-44
2021/04/18 11:10:25;;;;;;;6.90;4.78;;;11.10;99.90;;;;;;5092440;28;20474;-45
2021/04/18 11:12:50;;;;;;;4.05;3.65;;;11.10;99.90;;;;;;5073381;28;20039;-46
2021/04/18 11:15:16;;;;;;;4.68;3.60;;;11.00;99.90;;;;;;5092301;28;20028;-47
2021/04/18 11:17:42;;;;;;;4.45;3.28;;;11.00;99.90;;;;;;5090181;28;20432;-47
2021/04/18 11:20:12;;;;;;;3.40;2.78;;;10.90;99.90;;;;;;5092098;28;20036;-47
2021/04/18 11:22:38;;;;;;;5.18;3.78;;;10.80;99.90;;;;;;5090292;28;20036;-46
2021/04/18 11:25:11;;;;;;;5.40;4.18;;;11.00;99.90;;;;;;5092374;28;20025;-46
2021/04/18 11:27:38;;;;;;;5.28;3.55;;;11.00;99.90;;;;;;5073056;28;20398;-47
2021/04/18 11:30:10;;;;;;;5.53;3.78;;;11.20;99.90;;;;;;5092371;28;20081;-47
2021/04/18 11:32:36;;;;;;;11.32;5.95;;;10.90;99.90;;;;;;5055571;28;20126;-47
2021/04/18 11:35:07;;;;;;;4.28;3.88;;;11.10;99.90;;;;;;5092131;28;20104;-46
2021/04/18 11:37:33;;;;;;;7.18;5.07;;;11.20;99.90;;;;;;5057068;28;20036;-44
2021/04/18 11:39:59;;;;;;;5.78;4.13;;;11.00;99.90;;;;;;5089845;28;20063;-46
2021/04/18 11:42:25;;;;;;;6.07;4.72;;;11.00;99.90;;;;;;5055934;28;20438;-47
2021/04/18 11:44:51;;;;;;;4.15;3.28;;;10.70;99.90;;;;;;5039148;28;20056;-46
2021/04/18 11:47:18;;;;;;;5.10;4.40;;;10.90;99.90;;;;;;5089805;28;20040;-45
2021/04/18 11:49:45;;;;;;;4.28;3.63;;;10.90;99.90;;;;;;5059612;28;20040;-47
2021/04/18 11:52:11;;;;;;;3.72;3.28;;;10.80;99.90;;;;;;5094889;28;20123;-48
2021/04/18 11:54:36;;;;;;;4.13;3.05;;;11.00;99.90;;;;;;5061192;28;20119;-45
2021/04/18 11:57:02;;;;;;;3.55;3.05;;;11.20;99.90;;;;;;5044031;28;20036;-44
2021/04/18 11:59:28;;;;;;;3.65;2.95;;;11.00;99.90;;;;;;5094695;28;20067;-47
2021/04/18 12:01:54;;;;;;;3.83;3.20;;;10.80;99.90;;;;;;5094703;28;20024;-47
2021/04/18 12:04:19;;;;;;;7.50;4.50;;;10.90;99.90;;;;;;5094591;28;20219;-44
2021/04/18 12:06:45;;;;;;;11.02;5.45;;;11.10;99.90;;;;;;5060862;28;20076;-45
2021/04/18 12:09:11;;;;;;;12.70;5.75;;;11.20;99.90;;;;;;5096229;28;20036;-48
2021/04/18 12:11:36;;;;;;;6.07;4.13;;;11.20;99.90;;;;;;5094191;28;20505;-46
2021/04/18 12:14:02;;;;;;;3.60;2.70;;;11.20;99.90;;;;;;5096698;28;20036;-48
2021/04/18 12:16:28;;;;;;;3.95;3.33;;;11.10;99.90;;;;;;5096766;28;20375;-45
2021/04/18 12:18:54;;;;;;;13.82;7.05;;;11.20;99.90;;;;;;5096807;28;20020;-44
2021/04/18 12:21:20;;;;;;;7.05;4.20;;;11.10;99.90;;;;;;5095270;28;20467;-46
2021/04/18 12:23:46;;;;;;;6.03;4.30;;;10.80;99.90;;;;;;5061104;28;20040;-47
2021/04/18 12:26:12;;;;;;;4.15;3.20;;;10.90;99.90;;;;;;5096676;28;20033;-44
2021/04/18 12:28:37;;;;;;;4.07;3.60;;;11.00;99.90;;;;;;5095920;28;20040;-46
2021/04/18 12:31:03;;;;;;;4.32;3.33;;;11.00;99.90;;;;;;5095975;28;20032;-45
2021/04/18 12:33:29;;;;;;;7.40;3.50;;;10.60;99.90;;;;;;5095639;28;20027;-45
2021/04/18 12:35:55;;;;;;;4.47;3.63;;;10.50;99.90;;;;;;5096225;28;20039;-46
2021/04/18 12:38:21;;;;;;;7.35;4.43;;;10.60;99.90;;;;;;5110996;28;20032;-46
2021/04/18 12:40:47;;;;;;;7.28;4.70;;;10.70;99.90;;;;;;5096280;28;20477;-46
2021/04/18 12:43:13;;;;;;;6.35;4.45;;;10.60;99.90;;;;;;5096116;28;20032;-44
2021/04/18 12:45:39;;;;;;;5.25;3.95;;;10.60;99.90;;;;;;5096086;28;20052;-45
2021/04/18 12:48:05;;;;;;;4.60;3.63;;;10.70;99.90;;;;;;5110916;28;20566;-45
2021/04/18 12:50:30;;;;;;;6.38;3.75;;;10.90;99.90;;;;;;5076934;28;20089;-44
2021/04/18 12:52:56;;;;;;;13.25;7.32;;;10.80;99.90;;;;;;5093950;28;20036;-42
2021/04/18 12:55:22;;;;;;;6.93;3.90;;;11.00;99.90;;;;;;5093730;28;20054;-43
2021/04/18 12:57:48;;;;;;;4.50;3.70;;;11.00;99.90;;;;;;5059896;28;20032;-46